Time;durP1;ratioP1;P1;durP2;ratioP2;P2;SDS_P1;SDS_P2;PMS_P1;PMS_P2;Temp;Humidity;BMP_temperature;BMP_pressure;BME280_temperature;BME280_humidity;BME280_pressure;Samples;Min_cycle;Max_cycle;Signal;HPM_P1;HPM_P2
2021/03/03 00:01:30;;;;;;;50.33;25.77;;;6.20;99.90;;;;;;5011708;28;20079;-73
2021/03/03 00:04:08;;;;;;;47.40;24.50;;;6.10;99.90;;;;;;5010719;28;20049;-73
2021/03/03 00:06:34;;;;;;;45.97;24.45;;;6.10;99.90;;;;;;5012140;28;20022;-73
2021/03/03 00:08:59;;;;;;;50.63;23.10;;;6.10;99.90;;;;;;5011541;28;20547;-72
2021/03/03 00:11:25;;;;;;;45.28;22.63;;;6.10;99.90;;;;;;5011029;28;20056;-72
2021/03/03 00:13:51;;;;;;;44.47;22.27;;;6.10;99.90;;;;;;5011780;28;20022;-72
2021/03/03 00:16:17;;;;;;;46.45;22.98;;;6.20;99.90;;;;;;5011201;28;20670;-73
2021/03/03 00:18:43;;;;;;;54.63;25.48;;;6.20;99.90;;;;;;5011087;28;20033;-74
2021/03/03 00:21:08;;;;;;;50.13;24.45;;;6.10;99.90;;;;;;5011721;28;20072;-73
2021/03/03 00:23:34;;;;;;;48.80;25.02;;;6.20;99.90;;;;;;5011222;28;20489;-73
2021/03/03 00:26:03;;;;;;;47.58;23.27;;;6.20;99.90;;;;;;5010690;28;20528;-74
2021/03/03 00:28:29;;;;;;;45.97;24.40;;;6.20;99.90;;;;;;5011645;28;20049;-73
2021/03/03 00:30:54;;;;;;;44.13;23.08;;;6.10;99.90;;;;;;5011308;28;20018;-73
2021/03/03 00:33:20;;;;;;;47.40;22.48;;;6.10;99.90;;;;;;5012786;28;20061;-73
2021/03/03 00:35:48;;;;;;;51.60;23.17;;;6.10;99.90;;;;;;5014572;28;20102;-73
2021/03/03 00:38:13;;;;;;;40.15;20.38;;;6.00;99.90;;;;;;5016086;28;20030;-74
2021/03/03 00:40:39;;;;;;;37.63;18.15;;;5.90;99.90;;;;;;5018154;28;20022;-73
2021/03/03 00:43:05;;;;;;;40.78;20.80;;;5.90;99.90;;;;;;5014632;28;20493;-73
2021/03/03 00:45:30;;;;;;;36.85;19.75;;;5.80;99.90;;;;;;5015019;28;20390;-72
2021/03/03 00:47:56;;;;;;;34.85;18.55;;;5.80;99.90;;;;;;5014648;28;20029;-73
2021/03/03 00:50:22;;;;;;;35.88;18.33;;;5.70;99.90;;;;;;5017722;28;20030;-74
2021/03/03 00:52:47;;;;;;;37.95;19.73;;;5.70;99.90;;;;;;5015367;28;20085;-73
2021/03/03 00:55:13;;;;;;;41.95;20.80;;;5.60;99.90;;;;;;5015855;28;20014;-73
2021/03/03 00:57:40;;;;;;;31.65;19.00;;;5.60;99.90;;;;;;5015063;28;20037;-73
2021/03/03 01:00:07;;;;;;;35.03;19.08;;;5.60;99.90;;;;;;5013871;28;20022;-73
2021/03/03 01:02:33;;;;;;;32.13;18.83;;;5.60;99.90;;;;;;5014840;28;20045;-73
2021/03/03 01:04:58;;;;;;;33.53;18.52;;;5.50;99.90;;;;;;5017300;28;20021;-73
2021/03/03 01:07:24;;;;;;;34.10;19.23;;;5.50;99.90;;;;;;5017153;28;20104;-73
2021/03/03 01:09:49;;;;;;;32.63;17.90;;;5.50;99.90;;;;;;5015723;28;20344;-73
2021/03/03 01:12:15;;;;;;;35.20;19.60;;;5.50;99.90;;;;;;5014416;28;20756;-73
2021/03/03 01:14:41;;;;;;;37.72;18.98;;;5.50;99.90;;;;;;5013934;28;20028;-74
2021/03/03 01:17:06;;;;;;;46.38;22.30;;;5.40;99.90;;;;;;5014206;28;20054;-73
2021/03/03 01:19:32;;;;;;;48.72;21.17;;;5.40;99.90;;;;;;5014540;28;20512;-73
2021/03/03 01:21:57;;;;;;;41.70;20.45;;;5.40;99.90;;;;;;4999368;28;21996;-73
2021/03/03 01:24:23;;;;;;;37.08;20.85;;;5.40;99.90;;;;;;5014397;28;20062;-73
2021/03/03 01:26:48;;;;;;;45.88;19.52;;;5.40;99.90;;;;;;5014297;28;20033;-73
2021/03/03 01:29:14;;;;;;;37.60;20.20;;;5.40;99.90;;;;;;5013129;28;20533;-72
2021/03/03 01:31:39;;;;;;;39.00;19.67;;;5.30;99.90;;;;;;5014465;28;20108;-72
2021/03/03 01:34:05;;;;;;;38.90;20.15;;;5.30;99.90;;;;;;5013802;28;20350;-73
2021/03/03 01:36:30;;;;;;;36.33;18.70;;;5.30;99.90;;;;;;5013339;28;20030;-72
2021/03/03 01:38:56;;;;;;;37.28;20.30;;;5.30;99.90;;;;;;5013626;28;20026;-73
2021/03/03 01:41:22;;;;;;;36.80;18.80;;;5.30;99.90;;;;;;5013932;28;20041;-73
2021/03/03 01:43:47;;;;;;;37.78;18.65;;;5.30;99.90;;;;;;5012599;28;20038;-73
2021/03/03 01:46:13;;;;;;;37.03;18.50;;;5.20;99.90;;;;;;5013191;28;20588;-73
2021/03/03 01:48:38;;;;;;;36.90;19.85;;;5.20;99.90;;;;;;5013964;28;20409;-72
2021/03/03 01:51:05;;;;;;;36.08;19.48;;;5.10;99.90;;;;;;5012775;28;20029;-72
2021/03/03 01:53:31;;;;;;;35.03;18.48;;;5.10;99.90;;;;;;5013857;28;20030;-72
2021/03/03 01:55:57;;;;;;;34.78;19.15;;;5.10;99.90;;;;;;5013483;28;20101;-72
2021/03/03 01:58:23;;;;;;;35.42;17.85;;;5.10;99.90;;;;;;5012870;28;20116;-73
2021/03/03 02:00:49;;;;;;;39.92;19.02;;;5.10;99.90;;;;;;5013869;28;20048;-72
2021/03/03 02:03:15;;;;;;;34.65;19.05;;;5.00;99.90;;;;;;5013300;28;20038;-72
2021/03/03 02:05:41;;;;;;;39.67;18.70;;;5.10;99.90;;;;;;5013200;28;20026;-74
2021/03/03 02:08:19;;;;;;;34.35;18.85;;;5.00;99.90;;;;;;5013240;28;20032;-73
2021/03/03 02:11:01;;;;;;;38.10;18.67;;;5.00;99.90;;;;;;5012768;28;20052;-73
2021/03/03 02:13:39;;;;;;;35.55;18.45;;;5.00;99.90;;;;;;5013296;28;20570;-73
2021/03/03 02:16:07;;;;;;;43.33;19.67;;;5.00;99.90;;;;;;5013094;28;20030;-73
2021/03/03 02:18:35;;;;;;;34.33;18.85;;;5.00;99.90;;;;;;5012558;28;20394;-74
2021/03/03 02:21:25;;;;;;;36.60;19.17;;;5.00;99.90;;;;;;5013034;28;20061;-72
2021/03/03 02:24:07;;;;;;;33.40;17.02;;;4.90;99.90;;;;;;5013203;28;20037;-73
2021/03/03 02:26:34;;;;;;;36.17;19.35;;;5.00;99.90;;;;;;5012817;28;20065;-73
2021/03/03 02:29:23;;;;;;;38.67;18.17;;;4.90;99.90;;;;;;5012836;28;20022;-72
2021/03/03 02:31:50;;;;;;;39.22;19.60;;;5.00;99.90;;;;;;5012417;28;20018;-72
2021/03/03 02:34:17;;;;;;;36.17;19.13;;;5.00;99.90;;;;;;5012757;28;20731;-72
2021/03/03 02:36:44;;;;;;;49.88;19.92;;;4.90;99.90;;;;;;5013313;28;20048;-72
2021/03/03 02:39:10;;;;;;;34.60;20.17;;;4.90;99.90;;;;;;5012374;28;20385;-72
2021/03/03 02:41:37;;;;;;;41.45;19.35;;;4.80;99.90;;;;;;5014714;28;20101;-73
2021/03/03 02:44:05;;;;;;;38.55;19.15;;;4.80;99.90;;;;;;5012490;28;20025;-72
2021/03/03 02:46:32;;;;;;;34.78;19.35;;;4.90;99.90;;;;;;5012351;28;20045;-73
2021/03/03 02:48:58;;;;;;;38.28;19.10;;;4.80;99.90;;;;;;5013362;28;20052;-72
2021/03/03 02:51:23;;;;;;;45.90;21.77;;;4.80;99.90;;;;;;5015684;28;20474;-73
2021/03/03 02:53:51;;;;;;;46.47;21.85;;;4.70;99.90;;;;;;5014300;28;20026;-73
2021/03/03 02:56:17;;;;;;;49.03;21.42;;;4.70;99.90;;;;;;5019183;28;20164;-74
2021/03/03 02:58:44;;;;;;;40.33;21.40;;;4.70;99.90;;;;;;5022354;28;20474;-73
2021/03/03 03:01:14;;;;;;;41.60;21.67;;;4.70;99.90;;;;;;5014266;28;20022;-73
2021/03/03 03:03:50;;;;;;;44.27;22.07;;;4.70;99.90;;;;;;5012806;28;20389;-73
2021/03/03 03:06:20;;;;;;;52.45;24.60;;;4.70;99.90;;;;;;5013798;28;20025;-73
2021/03/03 03:08:48;;;;;;;46.40;22.23;;;4.70;99.90;;;;;;5013884;28;20037;-72
2021/03/03 03:11:22;;;;;;;47.75;22.27;;;4.70;99.90;;;;;;5011827;28;20088;-73
2021/03/03 03:13:49;;;;;;;48.13;23.35;;;4.70;99.90;;;;;;5011916;28;20045;-72
2021/03/03 03:16:16;;;;;;;53.25;23.58;;;4.70;99.90;;;;;;5012100;28;20018;-73
2021/03/03 03:18:45;;;;;;;48.53;23.60;;;4.70;99.90;;;;;;5012261;28;20038;-72
2021/03/03 03:21:15;;;;;;;45.78;23.08;;;4.70;99.90;;;;;;5011231;28;20535;-72
2021/03/03 03:23:44;;;;;;;46.92;21.23;;;4.70;99.90;;;;;;5012094;28;20073;-73
2021/03/03 03:26:11;;;;;;;45.15;23.13;;;4.70;99.90;;;;;;5011914;28;20057;-73
2021/03/03 03:28:38;;;;;;;41.88;20.27;;;4.70;99.90;;;;;;5011801;28;20032;-72
2021/03/03 03:31:09;;;;;;;44.45;21.42;;;4.70;99.90;;;;;;5012135;28;20034;-72
2021/03/03 03:33:34;;;;;;;;;;;4.70;99.90;;;;;;5012681;28;20025;-72
2021/03/03 03:36:01;;;;;;;43.65;21.48;;;4.60;99.90;;;;;;5011410;28;19989;-74
2021/03/03 03:38:28;;;;;;;55.58;22.58;;;4.60;99.90;;;;;;5011824;28;20026;-73
2021/03/03 03:40:54;;;;;;;42.38;21.70;;;4.60;99.90;;;;;;5012434;28;20034;-73
2021/03/03 03:43:20;;;;;;;45.60;22.58;;;4.60;99.90;;;;;;5010981;28;20471;-73
2021/03/03 03:45:48;;;;;;;40.25;21.08;;;4.60;99.90;;;;;;5011940;28;20501;-73
2021/03/03 03:48:16;;;;;;;43.60;20.67;;;4.60;99.90;;;;;;5011696;28;20084;-73
2021/03/03 03:50:42;;;;;;;47.50;21.95;;;4.60;99.90;;;;;;5011332;28;20025;-73
2021/03/03 03:53:08;;;;;;;47.33;21.70;;;4.60;99.90;;;;;;5011495;28;20029;-72
2021/03/03 03:55:36;;;;;;;44.47;20.70;;;4.60;99.90;;;;;;5012098;28;20026;-74
2021/03/03 03:58:02;;;;;;;40.88;21.00;;;4.60;99.90;;;;;;5011169;28;20041;-73
2021/03/03 04:00:29;;;;;;;47.33;21.95;;;4.60;99.90;;;;;;5011869;28;20121;-73
2021/03/03 04:02:55;;;;;;;44.38;21.35;;;4.60;99.90;;;;;;5011151;28;20512;-72
2021/03/03 04:05:21;;;;;;;40.13;20.10;;;4.60;99.90;;;;;;5011724;28;20026;-72
2021/03/03 04:07:46;;;;;;;39.90;21.83;;;4.60;99.90;;;;;;5012972;28;20025;-72
2021/03/03 04:10:18;;;;;;;49.85;21.85;;;4.60;99.90;;;;;;5014908;28;20266;-73
2021/03/03 04:12:44;;;;;;;39.60;19.88;;;4.60;99.90;;;;;;5015419;28;20517;-72
2021/03/03 04:15:10;;;;;;;39.20;20.45;;;4.60;99.90;;;;;;5015207;28;20026;-73
2021/03/03 04:17:38;;;;;;;43.63;21.92;;;4.60;99.90;;;;;;5014864;28;20116;-74
2021/03/03 04:20:09;;;;;;;41.28;20.60;;;4.60;99.90;;;;;;5014972;28;20026;-73
2021/03/03 04:22:35;;;;;;;36.92;21.08;;;4.60;99.90;;;;;;5015325;28;20029;-73
2021/03/03 04:25:02;;;;;;;42.63;20.77;;;4.60;99.90;;;;;;5014481;28;20067;-72
2021/03/03 04:27:27;;;;;;;43.05;22.15;;;4.60;99.90;;;;;;5015584;28;20030;-73
2021/03/03 04:29:53;;;;;;;41.95;20.00;;;4.60;99.90;;;;;;5015256;28;20102;-72
2021/03/03 04:32:19;;;;;;;42.97;22.15;;;4.50;99.90;;;;;;5014569;28;20033;-73
2021/03/03 04:34:44;;;;;;;39.92;21.20;;;4.60;99.90;;;;;;5015109;28;20022;-73
2021/03/03 04:37:10;;;;;;;39.13;21.45;;;4.60;99.90;;;;;;5015279;28;20022;-73
2021/03/03 04:39:35;;;;;;;39.90;19.15;;;4.60;99.90;;;;;;5015073;28;20361;-73
2021/03/03 04:42:04;;;;;;;39.60;19.58;;;4.60;99.90;;;;;;5018354;28;20018;-73
2021/03/03 04:44:31;;;;;;;39.40;20.52;;;4.60;99.90;;;;;;5015366;28;20478;-73
2021/03/03 04:46:57;;;;;;;40.15;21.15;;;4.60;99.90;;;;;;5014323;28;20025;-73
2021/03/03 04:49:22;;;;;;;41.00;20.45;;;4.60;99.90;;;;;;5015125;28;20029;-74
2021/03/03 04:51:48;;;;;;;40.30;19.25;;;4.60;99.90;;;;;;5018379;28;20377;-73
2021/03/03 04:54:13;;;;;;;41.20;20.52;;;4.60;99.90;;;;;;5014671;28;20120;-73
2021/03/03 04:56:39;;;;;;;45.80;21.17;;;4.60;99.90;;;;;;5019409;28;20053;-73
2021/03/03 04:59:04;;;;;;;41.92;21.50;;;4.60;99.90;;;;;;5014742;28;20022;-73
2021/03/03 05:01:33;;;;;;;41.00;21.67;;;4.70;99.90;;;;;;5014506;28;20076;-73
2021/03/03 05:03:59;;;;;;;42.28;20.33;;;4.70;99.90;;;;;;5014290;28;20033;-74
2021/03/03 05:06:25;;;;;;;37.90;19.40;;;4.60;99.90;;;;;;5014356;28;20029;-73
2021/03/03 05:08:51;;;;;;;38.20;19.95;;;4.60;99.90;;;;;;5014413;28;20026;-73
2021/03/03 05:11:17;;;;;;;43.17;19.58;;;4.60;99.90;;;;;;5014411;28;20205;-73
2021/03/03 05:13:42;;;;;;;43.92;21.17;;;4.60;99.90;;;;;;5013968;28;20196;-73
2021/03/03 05:16:08;;;;;;;40.83;19.83;;;4.50;99.90;;;;;;5014086;28;20044;-73
2021/03/03 05:18:33;;;;;;;38.53;20.13;;;4.50;99.90;;;;;;5014855;28;20033;-73
2021/03/03 05:21:02;;;;;;;46.70;20.20;;;4.50;99.90;;;;;;5014351;28;20030;-74
2021/03/03 05:23:29;;;;;;;33.90;18.25;;;4.50;99.90;;;;;;5015659;28;20042;-73
2021/03/03 05:25:56;;;;;;;38.80;19.70;;;4.50;99.90;;;;;;5017165;28;20034;-74
2021/03/03 05:28:21;;;;;;;51.60;22.50;;;4.50;99.90;;;;;;5016880;28;20026;-73
2021/03/03 05:30:47;;;;;;;49.40;22.55;;;4.50;99.90;;;;;;5016987;28;20048;-72
2021/03/03 05:33:21;;;;;;;52.40;23.90;;;4.50;99.90;;;;;;5014994;28;20018;-72
2021/03/03 05:35:46;;;;;;;47.42;22.50;;;4.50;99.90;;;;;;5014489;28;20116;-74
2021/03/03 05:38:12;;;;;;;39.75;21.45;;;4.50;99.90;;;;;;5014111;28;20072;-72
2021/03/03 05:40:37;;;;;;;41.65;21.83;;;4.50;99.90;;;;;;5014442;28;20359;-73
2021/03/03 05:43:06;;;;;;;41.80;20.23;;;4.60;99.90;;;;;;4999526;28;20478;-73
2021/03/03 05:45:32;;;;;;;46.63;21.80;;;4.60;99.90;;;;;;5013982;28;20113;-72
2021/03/03 05:47:58;;;;;;;43.72;21.55;;;4.60;99.90;;;;;;5013739;28;20108;-73
2021/03/03 05:50:24;;;;;;;45.67;21.85;;;4.60;99.90;;;;;;5013228;28;20382;-72
2021/03/03 05:52:51;;;;;;;54.30;25.52;;;4.70;99.90;;;;;;5013718;28;20105;-73
2021/03/03 05:55:17;;;;;;;45.85;22.80;;;4.70;99.90;;;;;;5013123;28;20029;-73
2021/03/03 05:57:43;;;;;;;39.28;20.90;;;4.80;99.90;;;;;;5013031;28;20030;-73
2021/03/03 06:00:09;;;;;;;38.33;20.05;;;4.80;99.90;;;;;;5013285;28;20470;-73
2021/03/03 06:02:37;;;;;;;32.22;17.45;;;4.80;99.90;;;;;;5012870;28;20036;-73
2021/03/03 06:05:04;;;;;;;32.88;16.83;;;4.80;99.90;;;;;;5013020;28;20482;-73
2021/03/03 06:07:30;;;;;;;30.10;15.55;;;4.80;99.90;;;;;;5013483;28;20132;-73
2021/03/03 06:09:55;;;;;;;39.15;19.23;;;4.80;99.90;;;;;;5012799;28;20029;-73
2021/03/03 06:12:21;;;;;;;35.40;19.77;;;4.80;99.90;;;;;;5013079;28;20041;-72
2021/03/03 06:14:47;;;;;;;42.30;21.05;;;4.70;99.90;;;;;;5013332;28;20026;-72
2021/03/03 06:17:12;;;;;;;44.17;20.88;;;4.80;99.90;;;;;;5011399;28;20021;-74
2021/03/03 06:19:39;;;;;;;50.42;24.05;;;4.80;99.90;;;;;;5014754;28;20018;-73
2021/03/03 06:22:28;;;;;;;47.58;22.35;;;4.80;99.90;;;;;;5015112;28;20021;-73
2021/03/03 06:24:55;;;;;;;45.33;21.60;;;4.80;99.90;;;;;;5010523;28;20108;-73
2021/03/03 06:27:22;;;;;;;51.65;23.02;;;4.80;99.90;;;;;;5012235;28;20076;-72
2021/03/03 06:30:10;;;;;;;46.55;21.88;;;4.80;99.90;;;;;;5011981;28;20036;-71
2021/03/03 06:32:58;;;;;;;43.47;21.35;;;4.80;99.90;;;;;;4992478;28;20022;-72
2021/03/03 06:35:44;;;;;;;41.05;19.67;;;4.80;99.90;;;;;;5011674;28;20513;-72
2021/03/03 06:38:14;;;;;;;39.42;20.90;;;4.80;99.90;;;;;;5011381;28;20032;-76
2021/03/03 06:40:54;;;;;;;29.67;17.63;;;4.80;99.90;;;;;;5010246;28;20029;-77
2021/03/03 06:43:28;;;;;;;42.47;20.00;;;4.80;99.90;;;;;;5014703;28;20041;-76
2021/03/03 06:45:55;;;;;;;39.92;19.73;;;4.80;99.90;;;;;;5011845;28;20471;-77
2021/03/03 06:48:44;;;;;;;38.80;20.15;;;4.80;99.90;;;;;;5010890;28;20037;-77
2021/03/03 06:51:19;;;;;;;41.97;19.70;;;4.90;99.90;;;;;;5004513;28;20049;-76
2021/03/03 06:53:46;;;;;;;43.08;21.90;;;4.90;99.90;;;;;;5011788;28;20029;-76
2021/03/03 06:56:11;;;;;;;48.08;23.25;;;4.90;99.90;;;;;;5011967;28;20390;-77
2021/03/03 06:58:37;;;;;;;41.45;21.80;;;4.90;99.90;;;;;;5012438;28;20034;-78
2021/03/03 07:01:03;;;;;;;40.42;21.80;;;5.00;99.90;;;;;;5010775;28;20111;-78
2021/03/03 07:03:37;;;;;;;40.33;22.33;;;5.00;99.90;;;;;;5009544;28;20505;-76
2021/03/03 07:06:03;;;;;;;37.10;20.88;;;5.00;99.90;;;;;;5010919;28;20018;-76
2021/03/03 07:08:30;;;;;;;37.30;20.20;;;5.00;99.90;;;;;;5012030;28;20036;-78
2021/03/03 07:10:55;;;;;;;41.00;19.17;;;5.00;99.90;;;;;;5011340;28;20101;-77
2021/03/03 07:13:36;;;;;;;44.25;21.30;;;5.00;99.90;;;;;;5011378;28;20557;-78
2021/03/03 07:16:03;;;;;;;35.03;20.15;;;5.00;99.90;;;;;;5011734;28;20034;-78
2021/03/03 07:18:37;;;;;;;36.97;20.85;;;5.00;99.90;;;;;;5012137;28;20030;-77
2021/03/03 07:21:04;;;;;;;34.30;18.73;;;5.00;99.90;;;;;;5011160;28;20470;-76
2021/03/03 07:23:50;;;;;;;37.03;19.95;;;5.00;99.90;;;;;;5011416;28;21256;-78
2021/03/03 07:26:17;;;;;;;42.58;18.33;;;5.00;99.90;;;;;;5009236;28;20149;-77
2021/03/03 07:28:43;;;;;;;38.25;18.95;;;4.90;99.90;;;;;;5010507;28;20481;-76
2021/03/03 07:31:10;;;;;;;31.15;17.98;;;4.90;99.90;;;;;;5010678;28;20109;-77
2021/03/03 07:33:36;;;;;;;32.55;17.80;;;4.90;99.90;;;;;;5008354;28;20045;-77
2021/03/03 07:36:07;;;;;;;32.25;20.25;;;4.90;99.90;;;;;;5009713;28;20053;-76
2021/03/03 07:38:41;;;;;;;37.88;20.70;;;4.90;99.90;;;;;;5011436;28;20426;-76
2021/03/03 07:41:13;;;;;;;42.28;20.73;;;4.90;99.90;;;;;;5009615;28;20041;-78
2021/03/03 07:43:43;;;;;;;39.97;19.83;;;4.90;99.90;;;;;;5007908;28;20472;-77
2021/03/03 07:46:09;;;;;;;35.60;19.77;;;4.90;99.90;;;;;;5008332;28;20093;-77
2021/03/03 07:48:37;;;;;;;32.17;18.50;;;4.90;99.90;;;;;;5010169;28;20048;-77
2021/03/03 07:51:08;;;;;;;32.60;17.48;;;4.90;99.90;;;;;;5009246;28;20104;-78
2021/03/03 07:53:38;;;;;;;28.88;17.23;;;4.80;99.90;;;;;;5010756;28;20034;-74
2021/03/03 07:56:07;;;;;;;33.90;17.52;;;4.80;99.90;;;;;;5010848;28;20056;-74
2021/03/03 07:58:35;;;;;;;31.38;16.35;;;4.80;99.90;;;;;;5011295;28;20065;-74
2021/03/03 08:01:01;;;;;;;26.00;15.95;;;4.70;99.90;;;;;;5008712;28;20030;-75
2021/03/03 08:03:46;;;;;;;33.00;18.02;;;4.70;99.90;;;;;;5010106;28;20041;-75
2021/03/03 08:06:21;;;;;;;31.45;18.33;;;4.60;99.90;;;;;;5008172;28;20022;-76
2021/03/03 08:09:05;;;;;;;39.90;19.05;;;4.50;99.90;;;;;;5011691;28;20474;-76
2021/03/03 08:11:38;;;;;;;29.85;16.73;;;4.40;99.90;;;;;;5011722;28;20810;-76
2021/03/03 08:14:37;;;;;;;42.33;14.80;;;4.30;99.90;;;;;;5012296;28;20026;-76
2021/03/03 08:17:05;;;;;;;56.42;14.98;;;4.30;99.90;;;;;;5011326;28;20060;-76
2021/03/03 08:19:49;;;;;;;39.45;15.90;;;4.30;99.90;;;;;;5011659;28;20069;-76
2021/03/03 08:22:15;;;;;;;30.70;15.27;;;4.30;99.90;;;;;;5009585;28;20121;-78
2021/03/03 08:24:40;;;;;;;34.83;14.35;;;4.30;99.90;;;;;;5010924;28;20116;-77
2021/03/03 08:27:30;;;;;;;30.13;14.40;;;4.20;99.90;;;;;;5011138;28;20424;-77
2021/03/03 08:30:16;;;;;;;22.10;14.30;;;4.20;99.90;;;;;;5009454;28;20026;-76
2021/03/03 08:32:42;;;;;;;20.88;14.70;;;4.20;99.90;;;;;;5013318;28;20084;-78
2021/03/03 08:35:09;;;;;;;29.08;14.43;;;4.20;99.90;;;;;;5011346;28;20025;-76
2021/03/03 08:37:37;;;;;;;39.72;14.95;;;4.30;99.90;;;;;;5011076;28;20029;-77
2021/03/03 08:40:26;;;;;;;29.30;15.32;;;4.30;99.90;;;;;;5011349;28;20010;-76
2021/03/03 08:42:52;;;;;;;34.72;14.55;;;4.40;99.90;;;;;;5003800;28;20046;-77
2021/03/03 08:45:19;;;;;;;32.67;15.80;;;4.40;99.90;;;;;;5011259;28;20033;-76
2021/03/03 08:47:51;;;;;;;48.75;15.02;;;4.40;99.90;;;;;;5011554;28;20026;-75
2021/03/03 08:50:30;;;;;;;66.28;14.35;;;4.60;99.90;;;;;;5010837;28;20076;-72
2021/03/03 08:53:25;;;;;;;27.50;11.70;;;4.60;99.90;;;;;;5013021;28;20026;-75
2021/03/03 08:55:52;;;;;;;29.67;12.00;;;4.70;99.90;;;;;;5011016;28;20034;-74
2021/03/03 08:58:33;;;;;;;17.33;11.65;;;4.80;99.90;;;;;;5012761;28;20072;-77
2021/03/03 09:00:59;;;;;;;41.88;12.73;;;4.80;99.90;;;;;;4998836;28;20060;-76
2021/03/03 09:03:25;;;;;;;36.92;13.30;;;4.80;99.90;;;;;;5012870;28;20038;-76
2021/03/03 09:05:51;;;;;;;23.63;13.32;;;4.90;99.90;;;;;;5012720;28;20129;-75
2021/03/03 09:08:21;;;;;;;26.65;13.02;;;5.00;99.90;;;;;;5013211;28;20021;-76
2021/03/03 09:10:49;;;;;;;53.55;15.15;;;5.00;99.90;;;;;;5013368;28;20128;-77
2021/03/03 09:13:26;;;;;;;33.58;16.23;;;5.10;99.90;;;;;;5009372;28;20038;-77
2021/03/03 09:16:03;;;;;;;32.10;15.98;;;5.20;99.90;;;;;;5013503;28;20365;-77
2021/03/03 09:18:28;;;;;;;43.90;15.93;;;5.30;99.90;;;;;;5010592;28;20022;-78
2021/03/03 09:21:11;;;;;;;44.00;16.50;;;5.30;99.90;;;;;;5012118;28;20037;-75
2021/03/03 09:23:39;;;;;;;44.70;17.30;;;5.30;99.90;;;;;;5009659;28;20030;-77
2021/03/03 09:26:20;;;;;;;26.73;16.02;;;5.40;99.90;;;;;;5010397;28;20022;-77
2021/03/03 09:28:46;;;;;;;28.65;14.98;;;5.50;99.90;;;;;;5012560;28;20018;-77
2021/03/03 09:31:33;;;;;;;49.42;17.25;;;5.50;99.90;;;;;;5010122;28;20028;-77
2021/03/03 09:34:01;;;;;;;39.58;16.40;;;5.60;99.90;;;;;;5005226;28;20029;-78
2021/03/03 09:36:27;;;;;;;78.47;15.90;;;5.60;99.90;;;;;;5014834;28;20572;-77
2021/03/03 09:38:55;;;;;;;32.28;15.50;;;5.60;99.90;;;;;;5015859;28;20054;-77
2021/03/03 09:41:21;;;;;;;54.78;16.85;;;5.60;99.90;;;;;;5012224;28;20044;-77
2021/03/03 09:44:01;;;;;;;30.05;15.20;;;5.60;99.90;;;;;;5021176;28;20089;-74
2021/03/03 09:46:30;;;;;;;61.05;16.92;;;5.70;99.90;;;;;;5016601;28;20032;-76
2021/03/03 09:48:56;;;;;;;35.45;17.95;;;5.80;99.90;;;;;;5012056;28;20163;-76
2021/03/03 09:51:21;;;;;;;38.75;18.25;;;5.80;99.90;;;;;;5011976;28;20101;-76
2021/03/03 09:53:54;;;;;;;70.57;17.45;;;6.00;99.90;;;;;;5011743;28;20053;-77
2021/03/03 09:56:30;;;;;;;55.03;17.42;;;5.90;99.90;;;;;;5011476;28;20025;-74
2021/03/03 09:58:57;;;;;;;29.58;18.50;;;6.00;99.90;;;;;;5012553;28;20599;-75
2021/03/03 10:01:24;;;;;;;61.10;18.80;;;6.00;99.90;;;;;;5011968;28;20160;-76
2021/03/03 10:03:51;;;;;;;85.20;19.05;;;5.90;99.90;;;;;;5011728;28;20412;-76
2021/03/03 10:06:17;;;;;;;54.00;19.77;;;6.00;99.90;;;;;;5010656;28;20032;-76
2021/03/03 10:08:49;;;;;;;38.55;20.88;;;6.00;99.90;;;;;;5011780;28;20038;-76
2021/03/03 10:11:15;;;;;;;36.53;22.95;;;6.00;99.90;;;;;;5013559;28;20085;-76
2021/03/03 10:13:41;;;;;;;36.35;23.23;;;6.10;99.90;;;;;;5013744;28;20057;-75
2021/03/03 10:16:19;;;;;;;57.63;22.08;;;6.30;99.90;;;;;;5012573;28;20038;-76
2021/03/03 10:18:59;;;;;;;44.17;23.67;;;6.20;99.90;;;;;;5013457;28;20132;-77
2021/03/03 10:21:24;;;;;;;38.72;23.38;;;6.20;99.90;;;;;;5013280;28;20045;-75
2021/03/03 10:23:50;;;;;;;42.30;25.30;;;6.20;99.90;;;;;;5012737;28;20486;-75
2021/03/03 10:26:15;;;;;;;45.28;25.60;;;6.10;99.90;;;;;;5012605;28;20100;-77
2021/03/03 10:28:41;;;;;;;43.63;26.50;;;6.10;99.90;;;;;;5012930;28;20022;-76
2021/03/03 10:31:15;;;;;;;47.05;28.17;;;6.10;99.90;;;;;;5011072;28;20030;-76
2021/03/03 10:33:41;;;;;;;44.38;26.80;;;6.20;99.90;;;;;;5012715;28;20026;-77
2021/03/03 10:36:20;;;;;;;49.55;26.67;;;6.30;99.90;;;;;;5010432;28;20069;-76
2021/03/03 10:38:59;;;;;;;45.08;26.77;;;6.30;99.90;;;;;;5008595;28;20022;-77
2021/03/03 10:41:33;;;;;;;49.10;28.80;;;6.20;99.90;;;;;;5012477;28;20419;-77
2021/03/03 10:43:59;;;;;;;47.38;28.83;;;6.20;99.90;;;;;;5011071;28;20390;-78
2021/03/03 10:46:28;;;;;;;52.22;30.23;;;6.20;99.90;;;;;;5013097;28;20469;-76
2021/03/03 10:48:56;;;;;;;54.88;30.80;;;6.20;99.90;;;;;;5012226;28;20478;-78
2021/03/03 10:51:35;;;;;;;59.33;31.27;;;6.20;99.90;;;;;;5011794;28;20026;-77
2021/03/03 10:54:01;;;;;;;55.55;32.13;;;6.20;99.90;;;;;;5011845;28;20025;-77
2021/03/03 10:56:31;;;;;;;58.63;31.52;;;6.40;99.90;;;;;;5012026;28;20041;-77
2021/03/03 10:59:07;;;;;;;59.22;31.92;;;6.40;99.90;;;;;;5008128;28;20117;-76
2021/03/03 11:01:48;;;;;;;53.53;30.33;;;6.60;99.90;;;;;;5013867;28;20045;-77
2021/03/03 11:04:14;;;;;;;51.42;30.13;;;6.60;99.90;;;;;;5010957;28;20033;-77
2021/03/03 11:06:40;;;;;;;59.70;33.55;;;6.70;99.90;;;;;;5027473;28;20042;-77
2021/03/03 11:09:14;;;;;;;68.18;36.95;;;6.80;99.90;;;;;;5014490;28;20548;-77
2021/03/03 11:11:51;;;;;;;62.15;35.53;;;7.00;99.90;;;;;;5012582;28;20132;-76
2021/03/03 11:14:18;;;;;;;61.03;35.10;;;7.00;99.90;;;;;;5011767;28;20127;-77
2021/03/03 11:16:50;;;;;;;61.33;34.17;;;7.20;99.90;;;;;;5012392;28;20052;-77
2021/03/03 11:19:16;;;;;;;61.70;35.38;;;7.40;99.90;;;;;;5011307;28;20022;-76
2021/03/03 11:21:42;;;;;;;61.45;34.25;;;7.30;99.90;;;;;;5012735;28;20026;-76
2021/03/03 11:24:08;;;;;;;75.80;40.83;;;7.30;99.90;;;;;;5012093;28;20088;-76
2021/03/03 11:26:40;;;;;;;105.47;51.35;;;7.40;99.90;;;;;;5011805;28;20022;-78
2021/03/03 11:29:06;;;;;;;87.40;45.47;;;7.40;99.90;;;;;;5005780;28;20101;-78
2021/03/03 11:31:32;;;;;;;79.18;41.78;;;7.40;99.90;;;;;;5011944;28;20132;-77
2021/03/03 11:33:58;;;;;;;86.50;45.40;;;7.50;99.90;;;;;;5011336;28;20038;-77
2021/03/03 11:36:24;;;;;;;90.20;45.97;;;7.60;99.90;;;;;;5011303;28;20390;-78
2021/03/03 11:38:50;;;;;;;83.82;45.60;;;7.80;99.90;;;;;;5010272;28;20112;-79
2021/03/03 11:41:16;;;;;;;91.25;49.28;;;7.90;99.90;;;;;;5010399;28;20025;-79
2021/03/03 11:43:41;;;;;;;91.10;47.03;;;8.00;99.90;;;;;;5010395;28;20088;-78
2021/03/03 11:46:07;;;;;;;92.70;47.53;;;8.10;99.90;;;;;;5010547;28;20029;-78
2021/03/03 11:48:33;;;;;;;81.38;43.92;;;8.30;99.90;;;;;;5010324;28;20120;-79
2021/03/03 11:50:59;;;;;;;85.80;45.92;;;8.40;99.90;;;;;;5011031;28;20026;-79
2021/03/03 11:53:25;;;;;;;85.78;44.92;;;8.40;99.90;;;;;;5011679;28;20039;-79
2021/03/03 11:55:50;;;;;;;81.72;46.28;;;8.40;99.90;;;;;;5011201;28;20018;-78
2021/03/03 11:58:16;;;;;;;83.50;45.30;;;8.20;99.90;;;;;;5011332;28;20026;-79
2021/03/03 12:00:41;;;;;;;85.78;45.85;;;8.30;99.90;;;;;;5011575;28;20371;-79
2021/03/03 12:03:09;;;;;;;81.63;44.38;;;8.20;99.90;;;;;;5012392;28;20050;-80
2021/03/03 12:05:35;;;;;;;87.95;46.60;;;8.40;99.90;;;;;;5027593;28;20033;-79
2021/03/03 12:08:00;;;;;;;80.28;45.03;;;8.30;99.90;;;;;;5011863;28;20022;-79
2021/03/03 12:10:26;;;;;;;79.53;45.85;;;8.50;99.90;;;;;;5011600;28;20026;-80
2021/03/03 12:12:51;;;;;;;77.97;44.38;;;8.50;99.90;;;;;;5011821;28;20050;-79
2021/03/03 12:15:17;;;;;;;81.57;46.47;;;8.50;99.90;;;;;;5010987;28;20030;-79
2021/03/03 12:17:43;;;;;;;85.57;48.13;;;8.50;99.90;;;;;;5012010;28;20029;-79
2021/03/03 12:20:09;;;;;;;89.53;48.75;;;8.50;99.90;;;;;;5011992;28;20520;-82
2021/03/03 12:22:35;;;;;;;84.47;47.25;;;8.60;99.90;;;;;;5007328;28;20033;-80
2021/03/03 12:25:01;;;;;;;83.68;47.08;;;8.60;99.90;;;;;;5011994;28;20086;-80
2021/03/03 12:27:26;;;;;;;88.90;49.78;;;9.10;99.90;;;;;;5011967;28;20033;-78
2021/03/03 12:29:52;;;;;;;89.57;50.03;;;8.80;99.90;;;;;;5014192;28;20105;-77
2021/03/03 12:32:18;;;;;;;95.38;49.35;;;8.80;99.90;;;;;;5015557;28;20033;-79
2021/03/03 12:34:43;;;;;;;87.05;47.58;;;9.00;99.90;;;;;;5015799;28;20022;-79
2021/03/03 12:37:09;;;;;;;90.03;49.03;;;9.10;99.90;;;;;;5014913;28;20014;-79
2021/03/03 12:39:35;;;;;;;90.28;50.25;;;9.20;99.90;;;;;;5011438;28;20030;-79
2021/03/03 12:42:00;;;;;;;90.75;52.65;;;9.30;99.90;;;;;;5015302;28;20032;-78
2021/03/03 12:44:32;;;;;;;89.38;49.13;;;9.40;99.90;;;;;;5015238;28;20049;-80
2021/03/03 12:46:58;;;;;;;86.82;49.20;;;9.30;99.90;;;;;;5015846;28;20033;-80